createdAt,value
2018-10-18T00:01:26.863Z,55.77
2018-10-18T00:03:55.277Z,56.40
2018-10-18T00:06:23.744Z,54.03
2018-10-18T00:08:52.125Z,54.70
2018-10-18T00:11:20.247Z,50.87
2018-10-18T00:13:48.657Z,53.53
2018-10-18T00:16:17.116Z,54.80
2018-10-18T00:18:45.521Z,54.30
2018-10-18T00:21:13.982Z,50.13
2018-10-18T00:23:42.420Z,52.83
2018-10-18T00:26:10.857Z,51.67
2018-10-18T00:28:39.264Z,56.40
2018-10-18T00:31:07.653Z,54.07
2018-10-18T00:33:36.068Z,47.97
2018-10-18T00:36:05.210Z,57.20
2018-10-18T00:38:33.473Z,50.10
2018-10-18T00:41:01.889Z,47.67
2018-10-18T00:43:30.285Z,52.77
2018-10-18T00:45:58.688Z,52.30
2018-10-18T00:48:27.096Z,48.93
2018-10-18T00:50:55.504Z,53.07
2018-10-18T00:53:23.956Z,51.53
2018-10-18T00:55:52.389Z,56.00
2018-10-18T00:58:20.804Z,56.03
2018-10-18T01:00:49.349Z,51.37
2018-10-18T01:03:17.767Z,55.43
2018-10-18T01:05:46.279Z,61.53
2018-10-18T01:08:14.702Z,56.13
2018-10-18T01:10:43.081Z,59.80
2018-10-18T01:13:11.692Z,55.47
2018-10-18T01:15:40.114Z,61.50
2018-10-18T01:18:09.025Z,58.23
2018-10-18T01:20:37.448Z,61.07
2018-10-18T01:23:06.416Z,56.53
2018-10-18T01:25:34.828Z,61.23
2018-10-18T01:28:03.229Z,55.70
2018-10-18T01:30:31.637Z,57.87
2018-10-18T01:33:00.054Z,56.03
2018-10-18T01:35:28.611Z,60.83
2018-10-18T01:37:57.064Z,64.53
2018-10-18T01:40:26.029Z,66.70
2018-10-18T01:42:54.484Z,64.23
2018-10-18T01:45:23.088Z,67.57
2018-10-18T01:47:51.478Z,67.53
2018-10-18T01:50:19.908Z,69.50
2018-10-18T01:52:48.318Z,62.93
2018-10-18T01:55:16.711Z,63.83
2018-10-18T01:57:45.211Z,66.87
2018-10-18T02:00:13.628Z,63.93
2018-10-18T02:02:42.060Z,72.77
2018-10-18T02:05:10.488Z,68.50
2018-10-18T02:07:38.908Z,73.33
2018-10-18T02:10:07.689Z,73.13
2018-10-18T02:12:36.133Z,59.43
2018-10-18T02:15:04.634Z,73.93
2018-10-18T02:17:33.108Z,68.20
2018-10-18T02:20:01.500Z,71.20
2018-10-18T02:22:29.959Z,58.83
2018-10-18T02:24:58.427Z,72.53
2018-10-18T02:27:26.784Z,65.10
2018-10-18T02:29:55.207Z,60.13
2018-10-18T02:32:23.712Z,64.37
2018-10-18T02:34:52.158Z,76.50
2018-10-18T02:37:20.553Z,66.73
2018-10-18T02:39:48.936Z,78.70
2018-10-18T02:42:17.440Z,75.43
2018-10-18T02:44:45.833Z,69.83
2018-10-18T02:47:14.223Z,76.40
2018-10-18T02:49:42.646Z,82.13
2018-10-18T02:52:11.473Z,73.17
2018-10-18T02:54:39.942Z,79.43
2018-10-18T02:57:08.453Z,77.67
2018-10-18T02:59:36.929Z,82.20
2018-10-18T03:02:06.076Z,79.40
2018-10-18T03:04:34.474Z,75.80
2018-10-18T03:07:02.893Z,82.87
2018-10-18T03:09:31.297Z,84.63
2018-10-18T03:11:59.711Z,81.47
2018-10-18T03:14:28.123Z,84.93
2018-10-18T03:16:56.562Z,79.77
2018-10-18T03:19:32.232Z,84.30
2018-10-18T03:22:00.623Z,80.23
2018-10-18T03:24:29.023Z,81.70
2018-10-18T03:26:57.467Z,75.93
2018-10-18T03:29:25.849Z,84.97
2018-10-18T03:31:54.253Z,90.90
2018-10-18T03:34:22.636Z,86.90
2018-10-18T03:36:51.047Z,86.50
2018-10-18T03:39:19.565Z,81.13
2018-10-18T03:41:48.018Z,87.70
2018-10-18T03:44:16.466Z,80.07
2018-10-18T03:46:44.924Z,93.00
2018-10-18T03:49:13.376Z,80.10
2018-10-18T03:51:41.803Z,79.40
2018-10-18T03:54:10.273Z,87.00
2018-10-18T03:56:38.598Z,80.57
2018-10-18T03:59:07.312Z,79.33
2018-10-18T04:01:35.703Z,78.97
2018-10-18T04:04:04.185Z,78.43
2018-10-18T04:06:32.586Z,90.03
2018-10-18T04:09:01.010Z,82.07
2018-10-18T04:11:29.403Z,84.77
2018-10-18T04:13:57.808Z,81.80
2018-10-18T04:16:26.684Z,80.73
2018-10-18T04:18:55.086Z,81.23
2018-10-18T04:21:23.500Z,85.87
2018-10-18T04:23:51.979Z,92.90
2018-10-18T04:26:20.369Z,82.63
2018-10-18T04:28:48.743Z,85.23
2018-10-18T04:31:17.160Z,84.77
2018-10-18T04:33:45.740Z,82.47
2018-10-18T04:36:14.249Z,89.53
2018-10-18T04:38:42.604Z,101.03
2018-10-18T04:41:11.133Z,101.03
2018-10-18T04:43:39.568Z,90.33
2018-10-18T04:46:07.971Z,99.40
2018-10-18T04:48:36.567Z,97.07
2018-10-18T04:51:05.207Z,95.90
2018-10-18T04:53:33.624Z,85.53
2018-10-18T04:56:02.052Z,87.53
2018-10-18T04:58:30.620Z,90.43
2018-10-18T05:00:59.121Z,91.37
2018-10-18T05:03:27.501Z,89.90
2018-10-18T05:06:00.836Z,100.17
2018-10-18T05:08:29.704Z,84.03
2018-10-18T05:10:58.213Z,85.07
2018-10-18T05:13:26.717Z,84.67
2018-10-18T05:15:55.109Z,81.33
2018-10-18T05:18:23.931Z,78.23
2018-10-18T05:20:52.372Z,81.17
2018-10-18T05:23:20.802Z,82.77
2018-10-18T05:25:50.060Z,76.30
2018-10-18T05:28:18.588Z,73.23
2018-10-18T05:30:47.380Z,71.93
2018-10-18T05:33:15.845Z,67.57
2018-10-18T05:35:44.252Z,71.03
2018-10-18T05:38:12.655Z,62.00
2018-10-18T05:40:41.175Z,62.50
2018-10-18T05:43:09.622Z,60.17
2018-10-18T05:45:38.016Z,61.27
2018-10-18T05:48:06.545Z,56.53
2018-10-18T05:50:34.976Z,54.63
2018-10-18T05:53:03.553Z,58.27
2018-10-18T05:55:31.884Z,53.53
2018-10-18T05:58:00.328Z,51.90
2018-10-18T06:00:28.776Z,51.13
2018-10-18T06:02:57.160Z,50.80
2018-10-18T06:05:25.570Z,53.30
2018-10-18T06:07:53.983Z,50.67
2018-10-18T06:10:33.733Z,50.47
2018-10-18T06:13:02.135Z,52.03
2018-10-18T06:15:30.434Z,48.90
2018-10-18T06:17:58.832Z,48.10
2018-10-18T06:20:27.293Z,46.90
2018-10-18T06:22:55.763Z,48.90
2018-10-18T06:25:24.141Z,50.53
2018-10-18T06:27:52.542Z,50.77
2018-10-18T06:30:20.989Z,46.23
2018-10-18T06:32:49.380Z,47.03
2018-10-18T06:35:17.764Z,46.40
2018-10-18T06:37:46.197Z,46.90
2018-10-18T06:40:16.199Z,47.20
2018-10-18T06:42:44.659Z,49.53
2018-10-18T06:45:14.526Z,47.17
2018-10-18T06:47:43.738Z,47.20
2018-10-18T06:50:14.558Z,44.40
2018-10-18T06:52:43.001Z,50.37
2018-10-18T06:55:11.492Z,44.00
2018-10-18T06:57:40.928Z,45.20
2018-10-18T07:00:14.805Z,45.07
2018-10-18T07:02:43.912Z,48.30
2018-10-18T07:05:13.589Z,51.53
2018-10-18T07:07:42.942Z,53.60
2018-10-18T07:10:11.356Z,48.37
2018-10-18T07:12:40.331Z,52.90
2018-10-18T07:15:10.407Z,53.00
2018-10-18T07:17:40.189Z,55.47
2018-10-18T07:20:09.220Z,52.60
2018-10-18T07:22:38.649Z,55.97
2018-10-18T07:25:09.181Z,53.10
2018-10-18T07:27:38.154Z,52.80
2018-10-18T07:30:08.267Z,48.87
2018-10-18T07:32:36.665Z,46.50
2018-10-18T07:35:06.281Z,46.93
2018-10-18T07:37:34.664Z,46.23
2018-10-18T07:40:03.456Z,42.63
2018-10-18T07:42:31.924Z,44.47
2018-10-18T07:45:00.576Z,45.10
2018-10-18T07:47:28.709Z,46.83
2018-10-18T07:49:57.160Z,44.43
2018-10-18T07:52:26.360Z,41.47
2018-10-18T07:54:54.794Z,39.87
2018-10-18T07:57:23.186Z,42.97
2018-10-18T07:59:51.684Z,42.43
2018-10-18T08:02:20.135Z,41.80
2018-10-18T08:04:48.556Z,43.70
2018-10-18T08:07:17.160Z,41.17
2018-10-18T08:09:45.555Z,41.20
2018-10-18T08:12:14.013Z,39.10
2018-10-18T08:14:42.515Z,43.03
2018-10-18T08:17:10.991Z,38.40
2018-10-18T08:19:39.425Z,40.57
2018-10-18T08:22:08.015Z,38.40
2018-10-18T08:24:36.508Z,38.80
2018-10-18T08:27:04.998Z,40.03
2018-10-18T08:29:33.667Z,39.23
2018-10-18T08:32:01.909Z,41.33
2018-10-18T08:34:30.376Z,41.27
2018-10-18T08:36:58.842Z,40.23
2018-10-18T08:39:27.220Z,39.33
2018-10-18T08:41:55.648Z,36.40
2018-10-18T08:44:24.244Z,37.73
2018-10-18T08:46:52.602Z,35.87
2018-10-18T08:49:21.118Z,34.07
2018-10-18T08:51:50.648Z,36.43
2018-10-18T08:54:19.138Z,36.20
2018-10-18T08:56:47.533Z,34.57
2018-10-18T08:59:16.015Z,36.73
2018-10-18T09:01:44.452Z,35.17
2018-10-18T09:04:12.862Z,35.57
2018-10-18T09:06:41.337Z,37.43
2018-10-18T09:09:10.219Z,37.93
2018-10-18T09:11:38.694Z,34.77
2018-10-18T09:14:07.692Z,30.00
2018-10-18T09:16:36.161Z,33.10
2018-10-18T09:19:04.999Z,31.57
2018-10-18T09:21:33.550Z,31.73
2018-10-18T09:24:02.035Z,33.70
2018-10-18T09:26:30.598Z,34.53
2018-10-18T09:28:59.089Z,35.50
2018-10-18T09:31:27.494Z,36.23
2018-10-18T09:33:55.998Z,38.70
2018-10-18T09:36:24.453Z,37.53
2018-10-18T09:38:52.969Z,35.77
2018-10-18T09:41:22.061Z,35.93
2018-10-18T09:43:54.682Z,39.43
2018-10-18T09:46:23.230Z,35.00
2018-10-18T09:48:51.741Z,35.97
2018-10-18T09:51:20.804Z,38.90
2018-10-18T09:53:49.460Z,35.03
2018-10-18T09:56:18.000Z,34.30
2018-10-18T09:58:46.344Z,34.73
2018-10-18T10:01:20.026Z,35.00
2018-10-18T10:03:48.500Z,30.87
2018-10-18T10:06:16.997Z,35.03
2018-10-18T10:08:45.448Z,31.73
2018-10-18T10:11:13.919Z,33.47
2018-10-18T10:13:42.439Z,31.63
2018-10-18T10:16:10.881Z,33.60
2018-10-18T10:18:39.573Z,34.33
2018-10-18T10:21:08.020Z,33.60
2018-10-18T10:23:36.420Z,31.63
2018-10-18T10:26:04.898Z,35.40
2018-10-18T10:28:33.316Z,36.80
2018-10-18T10:31:01.790Z,34.67
2018-10-18T10:33:30.272Z,32.73
2018-10-18T10:35:58.615Z,30.63
2018-10-18T10:38:27.032Z,29.40
2018-10-18T10:40:55.555Z,26.97
2018-10-18T10:43:24.076Z,27.83
2018-10-18T10:45:52.609Z,25.63
2018-10-18T10:48:20.999Z,23.53
2018-10-18T10:50:49.411Z,23.33
2018-10-18T10:53:17.813Z,25.70
2018-10-18T10:55:46.189Z,25.13
2018-10-18T10:58:14.758Z,28.33
2018-10-18T11:01:21.609Z,29.90
2018-10-18T11:03:51.454Z,30.87
2018-10-18T11:06:19.944Z,33.53
2018-10-18T11:08:48.365Z,28.63
2018-10-18T11:11:17.305Z,31.17
2018-10-18T11:13:45.897Z,31.50
2018-10-18T11:16:14.341Z,30.93
2018-10-18T11:18:42.990Z,31.87
2018-10-18T11:21:13.839Z,31.47
2018-10-18T11:23:42.134Z,33.97
2018-10-18T11:26:10.661Z,31.77
2018-10-18T11:28:39.205Z,30.97
2018-10-18T11:31:07.978Z,32.83
2018-10-18T11:33:36.399Z,33.17
2018-10-18T11:36:04.872Z,34.77
2018-10-18T11:38:33.272Z,33.60
2018-10-18T11:41:01.680Z,31.53
2018-10-18T11:43:30.073Z,34.03
2018-10-18T11:45:58.495Z,33.73
2018-10-18T11:48:27.000Z,36.77
2018-10-18T11:50:55.419Z,36.23
2018-10-18T11:53:23.893Z,33.37
2018-10-18T11:55:52.426Z,33.77
2018-10-18T11:58:20.829Z,31.80
2018-10-18T12:00:49.241Z,30.93
2018-10-18T12:03:17.666Z,27.80
2018-10-18T12:05:46.120Z,29.77
2018-10-18T12:08:14.654Z,29.27
2018-10-18T12:10:42.977Z,28.47
2018-10-18T12:13:11.391Z,25.87
2018-10-18T12:15:39.878Z,28.73
2018-10-18T12:18:08.400Z,27.97
2018-10-18T12:20:36.881Z,28.57
2018-10-18T12:23:05.556Z,29.47
2018-10-18T12:25:34.002Z,28.10
2018-10-18T12:28:02.588Z,29.10
2018-10-18T12:30:31.108Z,29.53
2018-10-18T12:32:59.582Z,28.40
2018-10-18T12:35:30.221Z,27.27
2018-10-18T12:37:58.626Z,26.50
2018-10-18T12:40:27.158Z,28.17
2018-10-18T12:42:55.556Z,28.27
2018-10-18T12:45:23.944Z,27.80
2018-10-18T12:47:52.442Z,26.47
2018-10-18T12:50:20.969Z,25.47
2018-10-18T12:52:49.472Z,28.00
2018-10-18T12:55:17.920Z,26.00
2018-10-18T12:57:46.360Z,26.10
2018-10-18T13:00:14.884Z,23.10
2018-10-18T13:02:43.428Z,23.70
2018-10-18T13:05:12.285Z,23.90
2018-10-18T13:07:40.700Z,21.60
2018-10-18T13:10:10.809Z,21.90
2018-10-18T13:12:39.406Z,18.27
2018-10-18T13:15:09.150Z,17.30
2018-10-18T13:17:37.998Z,17.40
2018-10-18T13:20:07.905Z,17.30
2018-10-18T13:22:36.316Z,16.47
2018-10-18T13:25:05.768Z,16.37
2018-10-18T13:27:34.210Z,14.33
2018-10-18T13:30:02.695Z,14.40
2018-10-18T13:32:31.058Z,14.30
2018-10-18T13:34:59.456Z,14.57
2018-10-18T13:37:27.886Z,12.97
2018-10-18T13:39:57.320Z,12.37
2018-10-18T13:42:25.720Z,12.83
2018-10-18T13:44:54.134Z,13.47
2018-10-18T13:47:22.579Z,12.67
2018-10-18T13:49:51.008Z,15.13
2018-10-18T13:52:19.442Z,14.43
2018-10-18T13:54:47.865Z,14.80
2018-10-18T13:57:16.308Z,14.27
2018-10-18T13:59:56.022Z,13.70
2018-10-18T14:02:24.364Z,15.33
2018-10-18T14:04:52.911Z,14.13
2018-10-18T14:07:21.366Z,14.77
2018-10-18T14:09:49.886Z,13.67
2018-10-18T14:12:18.329Z,13.13
2018-10-18T14:14:46.886Z,12.77
2018-10-18T14:17:15.344Z,11.13
2018-10-18T14:19:43.770Z,11.83
2018-10-18T14:22:12.321Z,8.53
2018-10-18T14:24:40.765Z,7.70
2018-10-18T14:27:09.183Z,7.10
2018-10-18T14:29:37.569Z,6.87
2018-10-18T14:32:06.641Z,8.10
2018-10-18T14:34:35.008Z,6.60
2018-10-18T14:37:03.492Z,7.70
2018-10-18T14:39:31.901Z,8.00
2018-10-18T14:42:00.352Z,6.90
2018-10-18T14:44:28.839Z,6.93
2018-10-18T14:46:57.224Z,6.40
2018-10-18T14:49:25.622Z,7.10
2018-10-18T14:51:54.057Z,10.63
2018-10-18T14:54:22.536Z,6.30
2018-10-18T14:56:51.011Z,21.03
2018-10-18T14:59:19.617Z,4.60
2018-10-18T15:01:48.033Z,4.00
2018-10-18T15:04:16.513Z,3.33
2018-10-18T15:06:44.993Z,3.07
2018-10-18T15:09:13.400Z,2.90
2018-10-18T15:11:41.790Z,3.90
2018-10-18T15:14:10.336Z,3.33
2018-10-18T15:16:38.744Z,2.97
2018-10-18T15:19:07.209Z,2.87
2018-10-18T15:21:35.857Z,2.87
2018-10-18T15:24:04.736Z,2.60
2018-10-18T15:26:33.451Z,2.60
2018-10-18T15:29:01.793Z,2.63
2018-10-18T15:31:30.233Z,2.60
2018-10-18T15:33:58.652Z,2.80
2018-10-18T15:36:27.109Z,2.57
2018-10-18T15:38:55.860Z,2.40
2018-10-18T15:41:24.069Z,2.70
2018-10-18T15:43:52.577Z,2.77
2018-10-18T15:46:21.272Z,2.70
2018-10-18T15:48:49.724Z,2.60
2018-10-18T15:51:18.252Z,3.70
2018-10-18T15:53:46.670Z,2.83
2018-10-18T15:56:15.096Z,3.03
2018-10-18T15:58:43.576Z,3.23
2018-10-18T16:01:12.003Z,3.10
2018-10-18T16:03:40.689Z,2.83
2018-10-18T16:06:08.916Z,2.90
2018-10-18T16:08:37.400Z,3.47
2018-10-18T16:11:06.110Z,3.87
2018-10-18T16:13:35.718Z,4.30
2018-10-18T16:16:04.202Z,4.23
2018-10-18T16:18:32.660Z,4.00
2018-10-18T16:21:01.228Z,4.10
2018-10-18T16:23:29.704Z,3.50
2018-10-18T16:25:58.125Z,4.10
2018-10-18T16:28:26.633Z,3.80
2018-10-18T16:30:55.292Z,4.60
2018-10-18T16:33:23.803Z,3.93
2018-10-18T16:35:52.474Z,5.10
2018-10-18T16:38:21.130Z,5.03
2018-10-18T16:40:50.034Z,4.97
2018-10-18T16:43:18.500Z,6.93
2018-10-18T16:45:46.896Z,6.97
2018-10-18T16:48:15.406Z,7.60
2018-10-18T16:50:43.792Z,7.23
2018-10-18T16:53:12.216Z,7.13
2018-10-18T16:55:40.678Z,7.50
2018-10-18T16:58:09.214Z,9.33
2018-10-18T17:00:37.652Z,8.10
2018-10-18T17:03:06.132Z,7.73
2018-10-18T17:05:34.591Z,8.17
2018-10-18T17:08:03.208Z,8.67
2018-10-18T17:10:31.620Z,8.33
2018-10-18T17:13:00.078Z,8.47
2018-10-18T17:15:28.850Z,8.83
2018-10-18T17:17:57.377Z,8.77
2018-10-18T17:20:25.931Z,10.30
2018-10-18T17:22:54.369Z,11.27
2018-10-18T17:25:22.787Z,11.73
2018-10-18T17:27:51.321Z,12.93
2018-10-18T17:30:19.767Z,13.83
2018-10-18T17:32:48.323Z,14.47
2018-10-18T17:35:16.794Z,13.07
2018-10-18T17:37:45.260Z,10.50
2018-10-18T17:40:13.826Z,10.03
2018-10-18T17:42:42.321Z,10.27
2018-10-18T17:45:12.034Z,11.20
2018-10-18T17:47:40.877Z,10.10
2018-10-18T17:50:09.920Z,9.70
2018-10-18T17:52:38.300Z,10.10
2018-10-18T17:55:07.572Z,9.27
2018-10-18T17:57:36.426Z,10.03
2018-10-18T18:00:08.727Z,11.07
2018-10-18T18:02:36.950Z,11.90
2018-10-18T18:05:05.980Z,11.17
2018-10-18T18:07:34.425Z,13.43
2018-10-18T18:10:02.929Z,13.00
2018-10-18T18:12:31.618Z,9.53
2018-10-18T18:15:00.194Z,11.17
2018-10-18T18:17:28.629Z,12.80
2018-10-18T18:19:57.194Z,15.87
2018-10-18T18:22:25.756Z,16.50
2018-10-18T18:24:54.502Z,15.00
2018-10-18T18:27:23.086Z,9.70
2018-10-18T18:29:51.520Z,9.70
2018-10-18T18:32:19.961Z,9.50
2018-10-18T18:34:48.545Z,9.80
2018-10-18T18:37:16.971Z,10.67
2018-10-18T18:39:45.442Z,11.93
2018-10-18T18:42:13.952Z,13.20
2018-10-18T18:44:42.429Z,13.53
2018-10-18T18:47:10.842Z,13.77
2018-10-18T18:49:39.359Z,16.20
2018-10-18T18:52:07.896Z,16.97
2018-10-18T18:54:36.400Z,19.13
2018-10-18T18:57:05.390Z,20.00
2018-10-18T18:59:33.956Z,19.47
2018-10-18T19:02:02.375Z,20.57
2018-10-18T19:04:30.937Z,22.73
2018-10-18T19:06:59.469Z,23.70
2018-10-18T19:09:27.929Z,28.93
2018-10-18T19:11:56.461Z,30.60
2018-10-18T19:14:24.986Z,33.17
2018-10-18T19:16:53.461Z,32.07
2018-10-18T19:19:21.962Z,35.67
2018-10-18T19:21:50.438Z,36.13
2018-10-18T19:24:19.001Z,38.43
2018-10-18T19:26:47.481Z,37.03
2018-10-18T19:29:15.576Z,38.47
2018-10-18T19:31:44.039Z,32.87
2018-10-18T19:34:12.610Z,32.83
2018-10-18T19:36:41.133Z,28.90
2018-10-18T19:39:10.509Z,26.03
2018-10-18T19:41:39.008Z,25.10
2018-10-18T19:44:07.570Z,29.20
2018-10-18T19:46:36.203Z,34.73
2018-10-18T19:49:05.030Z,35.03
2018-10-18T19:51:33.754Z,33.63
2018-10-18T19:54:02.276Z,27.23
2018-10-18T19:56:30.748Z,25.20
2018-10-18T19:58:59.260Z,24.17
2018-10-18T20:01:27.785Z,22.57
2018-10-18T20:03:56.258Z,24.97
2018-10-18T20:06:24.687Z,26.23
2018-10-18T20:08:53.169Z,27.43
2018-10-18T20:11:21.614Z,26.63
2018-10-18T20:13:50.068Z,30.00
2018-10-18T20:16:18.584Z,28.37
2018-10-18T20:18:47.024Z,30.90
2018-10-18T20:21:15.552Z,33.60
2018-10-18T20:23:43.929Z,33.40
2018-10-18T20:26:12.699Z,34.43
2018-10-18T20:28:40.853Z,29.60
2018-10-18T20:31:09.948Z,31.07
2018-10-18T20:33:38.389Z,32.03
2018-10-18T20:36:06.890Z,29.87
2018-10-18T20:38:35.300Z,27.50
2018-10-18T20:41:03.932Z,22.27
2018-10-18T20:43:32.429Z,23.67
2018-10-18T20:46:01.058Z,22.83
2018-10-18T20:48:29.511Z,21.00
2018-10-18T20:50:58.102Z,20.70
2018-10-18T20:53:26.860Z,21.03
2018-10-18T20:55:55.418Z,22.80
2018-10-18T20:58:24.235Z,22.80
2018-10-18T21:00:52.684Z,21.70
2018-10-18T21:03:21.164Z,22.30
2018-10-18T21:05:49.566Z,22.90
2018-10-18T21:08:18.135Z,23.60
2018-10-18T21:10:46.764Z,24.33
2018-10-18T21:13:15.386Z,24.30
2018-10-18T21:15:43.825Z,27.30
2018-10-18T21:18:12.364Z,28.23
2018-10-18T21:20:40.842Z,31.90
2018-10-18T21:23:09.471Z,31.97
2018-10-18T21:25:37.818Z,34.70
2018-10-18T21:28:06.351Z,34.63
2018-10-18T21:30:34.874Z,35.90
2018-10-18T21:33:03.363Z,30.80
2018-10-18T21:35:31.853Z,33.17
2018-10-18T21:38:00.898Z,30.87
2018-10-18T21:40:29.327Z,29.37
2018-10-18T21:42:57.798Z,33.10
2018-10-18T21:45:26.266Z,37.37
2018-10-18T21:47:55.000Z,41.17
2018-10-18T21:50:23.454Z,40.17
2018-10-18T21:52:53.978Z,39.87
2018-10-18T21:55:22.621Z,39.57
2018-10-18T21:57:51.049Z,35.63
2018-10-18T22:00:19.541Z,35.40
2018-10-18T22:02:48.080Z,37.77
2018-10-18T22:05:16.559Z,35.57
2018-10-18T22:07:45.040Z,39.20
2018-10-18T22:10:13.972Z,35.33
2018-10-18T22:12:42.369Z,37.03
2018-10-18T22:15:11.283Z,34.33
2018-10-18T22:17:39.691Z,34.73
2018-10-18T22:20:10.131Z,29.70
2018-10-18T22:22:38.590Z,33.97
2018-10-18T22:25:08.200Z,36.70
2018-10-18T22:27:36.721Z,36.00
2018-10-18T22:30:06.161Z,33.73
2018-10-18T22:32:34.642Z,41.17
2018-10-18T22:35:03.156Z,48.03
2018-10-18T22:37:31.519Z,51.70
2018-10-18T22:39:59.925Z,47.90
2018-10-18T22:42:28.415Z,44.10
2018-10-18T22:44:56.878Z,37.57
2018-10-18T22:47:25.249Z,32.13
2018-10-18T22:49:53.814Z,31.73
2018-10-18T22:52:22.306Z,28.93
2018-10-18T22:54:50.793Z,25.80
2018-10-18T22:57:19.237Z,27.70
2018-10-18T22:59:47.656Z,26.37
2018-10-18T23:02:16.088Z,22.43
2018-10-18T23:04:44.496Z,23.00
2018-10-18T23:07:12.981Z,23.43
2018-10-18T23:09:41.395Z,21.87
2018-10-18T23:12:09.831Z,22.47
2018-10-18T23:14:38.234Z,23.60
2018-10-18T23:17:06.689Z,24.53
2018-10-18T23:19:35.092Z,24.53
2018-10-18T23:22:05.780Z,22.13
2018-10-18T23:24:35.824Z,23.33
2018-10-18T23:27:04.527Z,23.90
2018-10-18T23:29:32.657Z,22.33
2018-10-18T23:32:01.096Z,23.40
2018-10-18T23:34:30.073Z,25.17
2018-10-18T23:36:58.629Z,24.83
2018-10-18T23:39:27.016Z,24.90
2018-10-18T23:41:55.512Z,24.70
2018-10-18T23:44:23.940Z,21.80
2018-10-18T23:46:52.333Z,21.77
2018-10-18T23:49:20.762Z,22.03
2018-10-18T23:51:49.169Z,20.67
2018-10-18T23:54:17.659Z,25.67
2018-10-18T23:56:46.067Z,25.17
2018-10-18T23:59:14.687Z,30.27
